Cross City, Florida
Current Conditions -  °F | °C
As of 2:55 AM on Thursday 27 Nov 2014 (Local Time) from K40J Reporting Station
Clear Clear  
Wind Chill: 40°   Ceiling: Unl
Heat Index: 40°   Visibility: 10mi
Dew Point: 39°   Wind: 0mph
Humidity: 99%   Direction: NA
Pressure: 30.22"   Gusts: NA
Location:  29.63°N, 83.13°W
Report Text: K40J 270755Z AUTO 00000KT 10SM CLR 04/04 A3022 RMK AO2 T00420041
Loading
Personal Weather Stations






























Interactive Weather Map New forecast layout! Learn more

10-Day Weather Forecast

Advertisements
Track Severe Weather on mobile